Time;durP1;ratioP1;P1;durP2;ratioP2;P2;SDS_P1;SDS_P2;PMS_P1;PMS_P2;Temp;Humidity;BMP_temperature;BMP_pressure;BME280_temperature;BME280_humidity;BME280_pressure;Samples;Min_cycle;Max_cycle;Signal;HPM_P1;HPM_P2
2022/08/16 00:01:43;;;;;;;;;;;;;;;25.86;60.60;98788.28;4500814;31;20331;-86
2022/08/16 00:04:08;;;;;;;;;;;;;;;25.86;60.60;98793.62;4516656;31;33960;-86
2022/08/16 00:06:33;;;;;;;;;;;;;;;25.54;60.58;98797.09;4517141;31;19988;-86
2022/08/16 00:08:58;;;;;;;;;;;;;;;25.27;60.56;98802.78;4500312;31;19988;-86
2022/08/16 00:11:23;;;;;;;;;;;;;;;25.08;60.56;98806.59;4491464;31;25517;-85
2022/08/16 00:13:49;;;;;;;;;;;;;;;24.97;60.55;98804.19;4509539;31;29313;-86
2022/08/16 00:16:14;;;;;;;;;;;;;;;24.99;60.55;98808.41;4493612;31;20033;-87
2022/08/16 00:18:39;;;;;;;;;;;;;;;24.86;60.55;98812.50;4508952;31;19988;-87
2022/08/16 00:21:05;;;;;;;;;;;;;;;24.73;60.53;98811.13;4510545;31;34303;-86
2022/08/16 00:23:30;;;;;;;;;;;;;;;24.93;60.55;98806.38;4500416;31;20026;-86
2022/08/16 00:25:55;;;;;;;;;;;;;;;25.13;60.55;98811.44;4506270;31;20225;-87
2022/08/16 00:28:20;;;;;;;;;;;;;;;24.95;60.55;98809.69;4502081;31;20647;-87
2022/08/16 00:30:46;;;;;;;;;;;;;;;24.88;60.54;98815.84;4509234;31;19998;-86
2022/08/16 00:33:11;;;;;;;;;;;;;;;24.74;60.53;98814.63;4512973;31;19984;-86
2022/08/16 00:35:36;;;;;;;;;;;;;;;24.66;60.53;98809.28;4494888;31;20007;-86
2022/08/16 00:38:02;;;;;;;;;;;;;;;24.62;60.53;98813.28;4505577;31;19992;-86
2022/08/16 00:40:36;;;;;;;;;;;;;;;24.45;60.53;98810.53;4501116;31;20042;-86
2022/08/16 00:43:02;;;;;;;;;;;;;;;24.49;60.53;98817.19;4500223;31;20010;-86
2022/08/16 00:45:35;;;;;;;;;;;;;;;24.48;60.52;98812.87;4485765;31;19992;-86
2022/08/16 00:48:01;;;;;;;;;;;;;;;24.41;60.52;98819.00;4501229;31;19987;-86
2022/08/16 00:50:27;;;;;;;;;;;;;;;24.13;60.51;98820.97;4504687;31;20316;-85
2022/08/16 00:52:53;;;;;;;;;;;;;;;24.10;60.50;98827.44;4509009;31;20380;-85
2022/08/16 00:55:19;;;;;;;;;;;;;;;24.18;60.51;98816.03;4489227;31;19988;-85
2022/08/16 00:57:44;;;;;;;;;;;;;;;23.96;60.50;98820.06;4510499;31;20365;-85
2022/08/16 01:00:10;;;;;;;;;;;;;;;23.69;60.48;98828.19;4511360;31;19984;-85
2022/08/16 01:02:35;;;;;;;;;;;;;;;23.72;60.49;98828.69;4500814;31;19992;-86
2022/08/16 01:05:00;;;;;;;;;;;;;;;23.69;60.48;98829.00;4499292;31;20899;-86
2022/08/16 01:07:26;;;;;;;;;;;;;;;23.77;60.49;98838.84;4490613;31;19988;-85
2022/08/16 01:09:51;;;;;;;;;;;;;;;23.75;60.49;98838.19;4493029;31;20006;-86
2022/08/16 01:12:18;;;;;;;;;;;;;;;23.96;60.50;98828.03;4508777;31;19988;-86
2022/08/16 01:14:44;;;;;;;;;;;;;;;23.82;60.49;98833.91;4490556;31;20147;-85
2022/08/16 01:17:09;;;;;;;;;;;;;;;23.70;60.48;98833.34;4507888;31;19973;-93
2022/08/16 01:19:36;;;;;;;;;;;;;;;23.70;60.49;98832.50;4501528;31;19995;-93
2022/08/16 01:22:05;;;;;;;;;;;;;;;23.67;60.48;98831.00;4494488;31;20002;-92
2022/08/16 01:24:32;;;;;;;;;;;;;;;23.62;60.48;98825.28;4496069;31;20003;-91
2022/08/16 01:26:59;;;;;;;;;;;;;;;23.26;60.45;98827.13;4498240;31;20083;-92
2022/08/16 01:29:32;;;;;;;;;;;;;;;23.24;60.45;98837.06;4500831;31;20896;-92
2022/08/16 01:31:57;;;;;;;;;;;;;;;23.31;60.46;98834.63;4500856;31;19995;-91
2022/08/16 01:34:22;;;;;;;;;;;;;;;23.19;60.46;98834.03;4492373;31;19980;-93
2022/08/16 01:36:47;;;;;;;;;;;;;;;23.21;60.46;98832.06;4509798;31;32346;-92
2022/08/16 01:39:14;;;;;;;;;;;;;;;23.20;60.46;98835.69;4493441;31;21082;-92
2022/08/16 01:41:40;;;;;;;;;;;;;;;23.25;60.46;98831.59;4509180;31;20018;-92
2022/08/16 01:44:05;;;;;;;;;;;;;;;23.22;60.46;98833.72;4500016;31;20012;-92
2022/08/16 01:46:32;;;;;;;;;;;;;;;23.17;60.45;98839.47;4500456;31;20031;-92
2022/08/16 01:49:02;;;;;;;;;;;;;;;23.05;60.45;98831.88;4500269;31;20028;-92
2022/08/16 01:51:27;;;;;;;;;;;;;;;23.18;60.46;98833.16;4500782;31;20007;-90
2022/08/16 01:53:52;;;;;;;;;;;;;;;23.04;60.45;98831.06;4500741;31;19984;-93
2022/08/16 01:56:18;;;;;;;;;;;;;;;23.03;60.45;98837.34;4500864;31;20392;-93
2022/08/16 01:58:43;;;;;;;;;;;;;;;22.96;60.44;98836.28;4500762;31;20237;-92
2022/08/16 02:01:09;;;;;;;;;;;;;;;23.00;60.44;98829.69;4500928;31;19984;-92
2022/08/16 02:03:34;;;;;;;;;;;;;;;23.00;60.44;98831.50;4500908;31;19987;-92
2022/08/16 02:05:59;;;;;;;;;;;;;;;22.95;60.45;98837.28;4500909;31;19998;-92
2022/08/16 02:08:25;;;;;;;;;;;;;;;23.01;60.44;98841.97;4499830;31;30640;-91
2022/08/16 02:10:51;;;;;;;;;;;;;;;22.95;60.44;98840.75;4501995;31;19997;-92
2022/08/16 02:13:16;;;;;;;;;;;;;;;22.87;60.43;98850.44;4501022;31;20247;-91
2022/08/16 02:15:41;;;;;;;;;;;;;;;23.15;60.45;98835.28;4500619;31;23296;-92
2022/08/16 02:18:06;;;;;;;;;;;;;;;23.22;60.46;98823.09;4501505;31;20228;-92
2022/08/16 02:20:32;;;;;;;;;;;;;;;22.78;60.43;98830.91;4500767;31;20004;-92
2022/08/16 02:22:58;;;;;;;;;;;;;;;22.64;60.43;98826.94;4500695;31;19987;-91
2022/08/16 02:25:24;;;;;;;;;;;;;;;22.44;60.41;98840.41;4500280;31;19992;-90
2022/08/16 02:27:49;;;;;;;;;;;;;;;22.57;60.43;98827.69;4500094;31;19994;-90
2022/08/16 02:30:15;;;;;;;;;;;;;;;22.51;60.42;98830.91;4500373;31;19998;-91
2022/08/16 02:32:41;;;;;;;;;;;;;;;22.54;60.42;98830.62;4502740;31;20010;-92
2022/08/16 02:35:06;;;;;;;;;;;;;;;22.49;60.42;98827.59;4513523;31;19949;-92
2022/08/16 02:37:31;;;;;;;;;;;;;;;22.57;60.42;98825.84;4518292;31;19952;-92
2022/08/16 02:39:57;;;;;;;;;;;;;;;22.62;60.42;98825.41;4518260;31;22110;-90
2022/08/16 02:42:22;;;;;;;;;;;;;;;22.62;60.42;98833.38;4509930;31;34936;-92
2022/08/16 02:44:48;;;;;;;;;;;;;;;22.61;60.42;98834.34;4507997;31;20008;-93
2022/08/16 02:47:13;;;;;;;;;;;;;;;22.73;60.43;98824.38;4506270;31;19986;-93
2022/08/16 02:49:38;;;;;;;;;;;;;;;22.69;60.42;98826.47;4502695;31;20312;-91
2022/08/16 02:52:03;;;;;;;;;;;;;;;22.63;60.42;98824.41;4502327;31;19980;-92
2022/08/16 02:54:29;;;;;;;;;;;;;;;22.49;60.42;98815.16;4502268;31;19993;-92
2022/08/16 02:56:54;;;;;;;;;;;;;;;22.39;60.40;98818.81;4503515;31;20005;-92
2022/08/16 02:59:20;;;;;;;;;;;;;;;22.42;60.42;98821.19;4501537;31;30580;-90
2022/08/16 03:01:45;;;;;;;;;;;;;;;22.41;60.41;98824.81;4508870;31;19998;-91
2022/08/16 03:04:11;;;;;;;;;;;;;;;22.42;60.42;98823.81;4502052;31;20053;-90
2022/08/16 03:06:36;;;;;;;;;;;;;;;22.58;60.42;98821.38;4503068;31;20015;-90
2022/08/16 03:09:02;;;;;;;;;;;;;;;22.42;60.42;98821.19;4501768;31;24816;-91
2022/08/16 03:11:27;;;;;;;;;;;;;;;22.31;60.40;98824.88;4502490;31;20044;-92
2022/08/16 03:13:53;;;;;;;;;;;;;;;22.23;60.40;98825.56;4503572;31;20289;-91
2022/08/16 03:16:19;;;;;;;;;;;;;;;22.09;60.39;98831.34;4504995;31;19968;-92
2022/08/16 03:18:44;;;;;;;;;;;;;;;22.07;60.39;98830.66;4502902;31;20007;-91
2022/08/16 03:21:11;;;;;;;;;;;;;;;22.09;60.39;98822.56;4503660;31;20354;-92
2022/08/16 03:23:37;;;;;;;;;;;;;;;21.92;60.38;98832.06;4504226;31;19980;-90
2022/08/16 03:26:02;;;;;;;;;;;;;;;22.08;60.39;98835.00;4502097;31;19972;-92
2022/08/16 03:28:28;;;;;;;;;;;;;;;21.97;60.39;98845.72;4502836;31;20031;-91
2022/08/16 03:30:54;;;;;;;;;;;;;;;22.17;60.39;98844.72;4502208;31;20042;-89
2022/08/16 03:33:19;;;;;;;;;;;;;;;22.22;60.40;98836.31;4502379;31;20332;-91
2022/08/16 03:35:44;;;;;;;;;;;;;;;22.08;60.39;98842.94;4501058;31;33617;-90
2022/08/16 03:38:11;;;;;;;;;;;;;;;22.02;60.38;98862.03;4501704;31;20036;-89
2022/08/16 03:40:36;;;;;;;;;;;;;;;22.00;60.39;98861.31;4501659;31;20018;-90
2022/08/16 03:43:05;;;;;;;;;;;;;;;22.04;60.39;98862.75;4501596;31;19988;-89
2022/08/16 03:45:32;;;;;;;;;;;;;;;22.11;60.39;98869.16;4501204;31;20327;-88
2022/08/16 03:47:57;;;;;;;;;;;;;;;22.29;60.41;98866.59;4501651;31;19999;-89
2022/08/16 03:50:22;;;;;;;;;;;;;;;21.94;60.38;98859.25;4501323;31;19976;-89
2022/08/16 03:52:47;;;;;;;;;;;;;;;21.99;60.39;98862.28;4501787;31;20059;-90
2022/08/16 03:55:13;;;;;;;;;;;;;;;22.15;60.40;98864.41;4501268;31;19992;-91
2022/08/16 03:57:38;;;;;;;;;;;;;;;22.20;60.40;98865.63;4501881;31;19988;-92
2022/08/16 04:00:12;;;;;;;;;;;;;;;22.21;60.40;98867.28;4501510;31;22925;-91
2022/08/16 04:02:37;;;;;;;;;;;;;;;22.22;60.40;98874.28;4501571;31;20031;-92
2022/08/16 04:05:03;;;;;;;;;;;;;;;22.56;60.42;98868.44;4501131;31;26759;-92
2022/08/16 04:07:28;;;;;;;;;;;;;;;22.44;60.41;98869.59;4501813;31;20327;-91
2022/08/16 04:09:53;;;;;;;;;;;;;;;22.49;60.41;98873.50;4501266;31;19984;-90
2022/08/16 04:12:19;;;;;;;;;;;;;;;22.55;60.41;98866.78;4500414;31;38144;-92
2022/08/16 04:14:46;;;;;;;;;;;;;;;22.51;60.41;98870.69;4501035;31;24460;-91
2022/08/16 04:17:13;;;;;;;;;;;;;;;22.62;60.42;98881.09;4502957;31;20024;-91
2022/08/16 04:19:39;;;;;;;;;;;;;;;22.76;60.42;98871.84;4501612;31;20253;-91
2022/08/16 04:22:04;;;;;;;;;;;;;;;22.81;60.43;98875.75;4501440;31;20024;-89
2022/08/16 04:24:29;;;;;;;;;;;;;;;22.81;60.43;98870.44;4501092;31;20285;-88
2022/08/16 04:26:54;;;;;;;;;;;;;;;22.73;60.43;98877.44;4501034;31;20031;-88
2022/08/16 04:29:19;;;;;;;;;;;;;;;22.65;60.43;98879.00;4501195;31;19988;-87
2022/08/16 04:31:45;;;;;;;;;;;;;;;22.81;60.43;98878.41;4500828;31;19994;-87
2022/08/16 04:34:11;;;;;;;;;;;;;;;22.82;60.43;98880.06;4501559;31;20322;-87
2022/08/16 04:36:36;;;;;;;;;;;;;;;22.84;60.43;98870.12;4501827;31;20028;-87
2022/08/16 04:39:01;;;;;;;;;;;;;;;22.96;60.44;98881.41;4501759;31;19988;-88
2022/08/16 04:41:31;;;;;;;;;;;;;;;23.11;60.45;98873.75;4501155;31;19996;-88
2022/08/16 04:43:57;;;;;;;;;;;;;;;23.24;60.45;98875.06;4501644;31;20296;-87
2022/08/16 04:46:22;;;;;;;;;;;;;;;23.43;60.47;98887.38;4501404;31;20006;-86
2022/08/16 04:48:47;;;;;;;;;;;;;;;23.44;60.47;98891.69;4501599;31;19992;-86
2022/08/16 04:51:13;;;;;;;;;;;;;;;23.43;60.47;98890.03;4501554;31;20016;-87
2022/08/16 04:53:38;;;;;;;;;;;;;;;23.54;60.46;98891.59;4500529;31;20007;-87
2022/08/16 04:56:03;;;;;;;;;;;;;;;23.68;60.47;98888.47;4502547;31;19999;-87
2022/08/16 04:58:30;;;;;;;;;;;;;;;23.67;60.47;98883.28;4501236;31;20634;-87
2022/08/16 05:00:55;;;;;;;;;;;;;;;23.81;60.47;98880.06;4501266;31;19976;-88
2022/08/16 05:03:20;;;;;;;;;;;;;;;23.82;60.49;98879.09;4501151;31;19989;-88
2022/08/16 05:05:45;;;;;;;;;;;;;;;24.03;60.48;98882.25;4500409;31;31386;-88
2022/08/16 05:08:11;;;;;;;;;;;;;;;23.98;60.49;98884.53;4502486;31;20349;-88
2022/08/16 05:10:36;;;;;;;;;;;;;;;24.17;60.50;98894.97;4501366;31;19995;-88
2022/08/16 05:13:02;;;;;;;;;;;;;;;24.41;60.51;98890.81;4501329;31;20017;-87
2022/08/16 05:15:27;;;;;;;;;;;;;;;24.47;60.52;98887.53;4501388;31;20025;-86
2022/08/16 05:17:52;;;;;;;;;;;;;;;24.52;60.52;98898.53;4500862;31;20343;-87
2022/08/16 05:20:17;;;;;;;;;;;;;;;24.20;60.51;98904.47;4502492;31;20356;-87
2022/08/16 05:22:43;;;;;;;;;;;;;;;24.16;60.49;98914.56;4502045;31;20323;-86
2022/08/16 05:25:08;;;;;;;;;;;;;;;24.09;60.49;98915.34;4502328;31;20022;-87
2022/08/16 05:27:34;;;;;;;;;;;;;;;24.24;60.50;98918.28;4501043;31;19996;-86
2022/08/16 05:29:59;;;;;;;;;;;;;;;24.57;60.52;98914.00;4502373;31;19991;-87
2022/08/16 05:32:24;;;;;;;;;;;;;;;24.65;60.52;98912.25;4500731;31;19972;-87
2022/08/16 05:34:49;;;;;;;;;;;;;;;24.74;60.52;98911.28;4502001;31;19994;-87
2022/08/16 05:37:14;;;;;;;;;;;;;;;24.72;60.53;98909.78;4500817;31;19995;-87
2022/08/16 05:39:40;;;;;;;;;;;;;;;24.77;60.54;98910.13;4501461;31;24354;-87
2022/08/16 05:42:05;;;;;;;;;;;;;;;24.78;60.54;98911.78;4500701;31;19976;-87
2022/08/16 05:44:30;;;;;;;;;;;;;;;24.84;60.54;98916.47;4500178;31;20033;-87
2022/08/16 05:46:56;;;;;;;;;;;;;;;24.69;60.53;98916.25;4500195;31;19999;-88
2022/08/16 05:49:22;;;;;;;;;;;;;;;24.71;60.53;98924.06;4500396;31;19984;-88
2022/08/16 05:51:47;;;;;;;;;;;;;;;24.61;60.52;98916.22;4500588;31;20076;-87
2022/08/16 05:54:13;;;;;;;;;;;;;;;24.66;60.52;98908.59;4500180;31;19984;-88
2022/08/16 05:56:39;;;;;;;;;;;;;;;24.79;60.53;98921.44;4500442;31;20670;-87
2022/08/16 05:59:04;;;;;;;;;;;;;;;24.82;60.53;98920.28;4500694;31;20300;-88
2022/08/16 06:01:29;;;;;;;;;;;;;;;24.75;60.53;98914.78;4500434;31;19995;-87
2022/08/16 06:03:54;;;;;;;;;;;;;;;25.02;60.55;98919.06;4501354;31;19976;-87
2022/08/16 06:06:19;;;;;;;;;;;;;;;24.95;60.53;98920.69;4502172;31;20054;-87
2022/08/16 06:08:45;;;;;;;;;;;;;;;24.80;60.53;98928.44;4504211;31;19972;-88
2022/08/16 06:11:10;;;;;;;;;;;;;;;24.70;60.53;98927.72;4502007;31;19964;-88
2022/08/16 06:13:36;;;;;;;;;;;;;;;24.57;60.52;98922.81;4503280;31;20305;-87
2022/08/16 06:16:03;;;;;;;;;;;;;;;24.48;60.51;98916.63;4513098;31;20021;-87
2022/08/16 06:18:28;;;;;;;;;;;;;;;24.37;60.51;98922.22;4518256;31;19966;-88
2022/08/16 06:20:53;;;;;;;;;;;;;;;24.23;60.50;98913.94;4517689;31;34376;-88
2022/08/16 06:23:18;;;;;;;;;;;;;;;23.95;60.48;98915.91;4507503;31;34696;-87
2022/08/16 06:25:44;;;;;;;;;;;;;;;23.94;60.49;98915.06;4504327;31;19984;-87
2022/08/16 06:28:09;;;;;;;;;;;;;;;23.86;60.48;98915.00;4503963;31;20282;-87
2022/08/16 06:30:35;;;;;;;;;;;;;;;24.05;60.50;98904.19;4502234;31;19983;-88
2022/08/16 06:33:00;;;;;;;;;;;;;;;24.06;60.50;98903.19;4488973;31;19980;-89
2022/08/16 06:35:25;;;;;;;;;;;;;;;24.22;60.51;98904.31;4502182;31;20247;-87
2022/08/16 06:37:51;;;;;;;;;;;;;;;24.16;60.50;98895.13;4503330;31;19972;-88
2022/08/16 06:40:16;;;;;;;;;;;;;;;24.08;60.50;98893.22;4501577;31;25378;-88
2022/08/16 06:42:41;;;;;;;;;;;;;;;24.36;60.50;98885.12;4502241;31;20253;-86
2022/08/16 06:45:06;;;;;;;;;;;;;;;24.73;60.52;98871.50;4501952;31;20024;-87
2022/08/16 06:47:32;;;;;;;;;;;;;;;25.06;60.54;98881.28;4502167;31;19980;-87
2022/08/16 06:49:57;;;;;;;;;;;;;;;25.39;60.56;98878.72;4501303;31;39687;-87
2022/08/16 06:52:22;;;;;;;;;;;;;;;25.60;60.57;98871.09;4488553;31;19993;-87
2022/08/16 06:54:48;;;;;;;;;;;;;;;25.86;60.59;98867.44;4501581;31;25613;-87
2022/08/16 06:57:13;;;;;;;;;;;;;;;26.10;60.60;98863.91;4502061;31;19994;-87
2022/08/16 06:59:38;;;;;;;;;;;;;;;26.19;60.60;98862.88;4501739;31;20064;-87
2022/08/16 07:02:04;;;;;;;;;;;;;;;26.58;60.62;98858.47;4501917;31;19983;-87
2022/08/16 07:04:29;;;;;;;;;;;;;;;26.79;60.62;98865.06;4501781;31;20275;-88
2022/08/16 07:06:55;;;;;;;;;;;;;;;26.90;60.63;98860.16;4501949;31;19991;-88
2022/08/16 07:09:20;;;;;;;;;;;;;;;26.85;60.63;98873.19;4501806;31;19971;-88
2022/08/16 07:11:45;;;;;;;;;;;;;;;26.80;60.64;98885.41;4501597;31;20914;-88
2022/08/16 07:14:11;;;;;;;;;;;;;;;26.57;60.63;98890.69;4501616;31;27782;-88
2022/08/16 07:16:36;;;;;;;;;;;;;;;26.57;60.63;98893.34;4502798;31;19980;-87
2022/08/16 07:19:01;;;;;;;;;;;;;;;26.56;60.63;98911.19;4501064;31;30774;-88
2022/08/16 07:21:27;;;;;;;;;;;;;;;26.42;60.61;98924.41;4501859;31;20100;-87
2022/08/16 07:23:52;;;;;;;;;;;;;;;26.22;60.60;98929.22;4501797;31;20000;-87
2022/08/16 07:26:18;;;;;;;;;;;;;;;26.23;60.60;98937.06;4501725;31;20349;-88
2022/08/16 07:28:44;;;;;;;;;;;;;;;26.04;60.59;98944.59;4501871;31;19980;-88
2022/08/16 07:31:09;;;;;;;;;;;;;;;25.45;60.56;98933.16;4500896;31;32002;-87
2022/08/16 07:33:36;;;;;;;;;;;;;;;25.09;60.55;98944.06;4503012;31;19987;-88
2022/08/16 07:36:01;;;;;;;;;;;;;;;25.38;60.56;98939.16;4501836;31;20433;-88
2022/08/16 07:38:27;;;;;;;;;;;;;;;25.46;60.57;98935.66;4503036;31;19960;-88
2022/08/16 07:40:53;;;;;;;;;;;;;;;25.55;60.58;98932.03;4502773;31;20328;-89
2022/08/16 07:43:18;;;;;;;;;;;;;;;25.56;60.57;98944.38;4503120;31;19972;-88
2022/08/16 07:45:43;;;;;;;;;;;;;;;25.74;60.58;98941.56;4501494;31;19994;-88
2022/08/16 07:48:08;;;;;;;;;;;;;;;26.02;60.60;98947.41;4502476;31;24657;-88
2022/08/16 07:50:34;;;;;;;;;;;;;;;26.13;60.60;98943.59;4501745;31;20024;-88
2022/08/16 07:52:59;;;;;;;;;;;;;;;26.14;60.59;98931.91;4500861;31;30804;-88
2022/08/16 07:55:24;;;;;;;;;;;;;;;26.17;60.60;98942.25;4501532;31;19976;-88
2022/08/16 07:57:49;;;;;;;;;;;;;;;26.41;60.61;98933.41;4502545;31;20443;-88
2022/08/16 08:00:16;;;;;;;;;;;;;;;26.54;60.61;98931.06;4502870;31;20016;-89
2022/08/16 08:02:42;;;;;;;;;;;;;;;26.64;60.63;98929.00;4501534;31;20055;-88
2022/08/16 08:05:07;;;;;;;;;;;;;;;26.89;60.64;98933.25;4501533;31;19968;-88
2022/08/16 08:07:33;;;;;;;;;;;;;;;27.04;60.64;98935.25;4501581;31;19968;-88
2022/08/16 08:09:58;;;;;;;;;;;;;;;27.01;60.64;98933.75;4501703;31;20052;-89
2022/08/16 08:12:24;;;;;;;;;;;;;;;27.19;60.65;98945.00;4487949;31;22500;-88
2022/08/16 08:14:49;;;;;;;;;;;;;;;27.29;60.66;98933.28;4500818;31;27496;-88
2022/08/16 08:17:15;;;;;;;;;;;;;;;27.26;60.65;98933.63;4501577;31;19964;-88
2022/08/16 08:19:40;;;;;;;;;;;;;;;27.38;60.66;98940.25;4501436;31;19996;-88
2022/08/16 08:22:05;;;;;;;;;;;;;;;27.51;60.67;98944.00;4502373;31;22209;-88
2022/08/16 08:24:31;;;;;;;;;;;;;;;27.64;60.67;98951.47;4502720;31;19990;-89
2022/08/16 08:26:58;;;;;;;;;;;;;;;27.59;60.68;98948.47;4488321;31;19976;-89
2022/08/16 08:29:23;;;;;;;;;;;;;;;27.95;60.68;98947.91;4500579;31;20339;-89
2022/08/16 08:31:48;;;;;;;;;;;;;;;27.86;60.68;98949.81;4501452;31;19972;-89
2022/08/16 08:34:13;;;;;;;;;;;;;;;27.79;60.68;98957.72;4487639;31;26485;-89
2022/08/16 08:36:39;;;;;;;;;;;;;;;27.80;60.68;98961.22;4501300;31;19988;-88
2022/08/16 08:39:04;;;;;;;;;;;;;;;28.01;60.69;98945.34;4500890;31;20022;-88
2022/08/16 08:41:30;;;;;;;;;;;;;;;28.05;60.69;98948.50;4501277;31;19999;-89
2022/08/16 08:43:55;;;;;;;;;;;;;;;28.04;60.69;98944.16;4501313;31;19975;-88
2022/08/16 08:46:21;;;;;;;;;;;;;;;28.40;60.71;98952.41;4487859;31;19976;-89
2022/08/16 08:48:47;;;;;;;;;;;;;;;28.82;60.73;98937.53;4501361;31;20016;-89
2022/08/16 08:51:12;;;;;;;;;;;;;;;29.18;60.76;98933.09;4488143;31;20018;-89
2022/08/16 08:53:38;;;;;;;;;;;;;;;29.36;60.76;98931.88;4500938;31;20048;-89
2022/08/16 08:56:05;;;;;;;;;;;;;;;29.59;60.78;98924.50;4501183;31;20302;-88
2022/08/16 08:58:32;;;;;;;;;;;;;;;29.95;60.78;98921.75;4501285;31;19988;-88
2022/08/16 09:00:57;;;;;;;;;;;;;;;30.12;60.79;98922.34;4501208;31;20015;-88
2022/08/16 09:03:22;;;;;;;;;;;;;;;30.21;60.81;98924.66;4500539;31;25491;-88
2022/08/16 09:05:49;;;;;;;;;;;;;;;30.24;60.80;98920.75;4501065;31;19995;-87
2022/08/16 09:08:15;;;;;;;;;;;;;;;30.52;60.82;98921.59;4502483;31;19984;-87
2022/08/16 09:10:40;;;;;;;;;;;;;;;30.77;60.83;98924.66;4500634;31;20824;-87
2022/08/16 09:13:06;;;;;;;;;;;;;;;31.04;60.84;98922.94;4500978;31;20301;-87
2022/08/16 09:15:31;;;;;;;;;;;;;;;31.35;60.86;98917.06;4501280;31;33894;-83
2022/08/16 09:17:56;;;;;;;;;;;;;;;31.57;60.87;98914.22;4502219;31;20304;-84
2022/08/16 09:20:22;;;;;;;;;;;;;;;31.72;60.88;98915.72;4500825;31;20008;-84
2022/08/16 09:22:48;;;;;;;;;;;;;;;32.03;60.88;98908.91;4501052;31;19991;-84
2022/08/16 09:25:13;;;;;;;;;;;;;;;32.17;60.89;98902.47;4500813;31;19972;-84
2022/08/16 09:27:38;;;;;;;;;;;;;;;32.29;60.91;98897.31;4501255;31;35078;-85
2022/08/16 09:30:04;;;;;;;;;;;;;;;32.49;60.91;98890.03;4500862;31;20028;-85
2022/08/16 09:32:30;;;;;;;;;;;;;;;32.38;60.91;98884.44;4500716;31;19994;-85
2022/08/16 09:34:55;;;;;;;;;;;;;;;32.61;60.92;98891.03;4500640;31;19995;-85
2022/08/16 09:37:20;;;;;;;;;;;;;;;32.66;60.93;98887.72;4500195;31;24927;-85
2022/08/16 09:39:45;;;;;;;;;;;;;;;32.80;60.93;98885.81;4499927;31;29270;-86
2022/08/16 09:42:13;;;;;;;;;;;;;;;32.84;60.94;98885.16;4500209;31;24551;-86
2022/08/16 09:44:38;;;;;;;;;;;;;;;33.06;60.94;98887.56;4500870;31;19983;-86
2022/08/16 09:47:03;;;;;;;;;;;;;;;33.28;60.96;98892.44;4500031;31;23200;-85
2022/08/16 09:49:29;;;;;;;;;;;;;;;33.29;60.96;98879.78;4500831;31;20041;-85
2022/08/16 09:51:54;;;;;;;;;;;;;;;33.38;60.96;98883.91;4500521;31;20324;-86
2022/08/16 09:54:20;;;;;;;;;;;;;;;33.71;60.97;98883.69;4500602;31;20051;-86
2022/08/16 09:56:45;;;;;;;;;;;;;;;33.93;60.99;98881.47;4501958;31;19984;-85
2022/08/16 09:59:12;;;;;;;;;;;;;;;34.00;61.00;98870.59;4500726;31;20236;-85
2022/08/16 10:01:37;;;;;;;;;;;;;;;34.40;61.01;98869.19;4501941;31;19980;-85
2022/08/16 10:04:02;;;;;;;;;;;;;;;34.45;61.02;98872.06;4508214;31;20259;-85
2022/08/16 10:06:27;;;;;;;;;;;;;;;34.64;61.03;98864.78;4511681;31;19989;-86
2022/08/16 10:08:53;;;;;;;;;;;;;;;34.90;61.04;98860.97;4510577;31;19999;-85
2022/08/16 10:14:02;;;;;;;;;;;;;;;34.99;61.04;98862.28;4501810;31;19990;-86
2022/08/16 10:16:28;;;;;;;;;;;;;;;35.04;61.04;98858.91;4500350;31;20007;-86
2022/08/16 10:18:53;;;;;;;;;;;;;;;35.24;61.05;98862.16;4501471;31;20317;-86
2022/08/16 10:21:18;;;;;;;;;;;;;;;35.46;61.07;98848.94;4501468;31;20046;-86
2022/08/16 10:23:44;;;;;;;;;;;;;;;35.58;61.08;98854.41;4499296;31;36368;-86
2022/08/16 10:26:09;;;;;;;;;;;;;;;35.73;61.08;98859.34;4500180;31;20012;-86
2022/08/16 10:28:35;;;;;;;;;;;;;;;35.94;61.09;98859.66;4499544;31;20322;-85
2022/08/16 10:31:01;;;;;;;;;;;;;;;35.98;61.10;98860.03;4500284;31;20028;-86
2022/08/16 10:33:26;;;;;;;;;;;;;;;36.14;61.10;98856.59;4501318;31;20237;-86
2022/08/16 10:35:52;;;;;;;;;;;;;;;36.31;61.11;98859.47;4499868;31;20037;-87
2022/08/16 10:38:17;;;;;;;;;;;;;;;36.41;61.11;98854.25;4486341;31;21265;-85
2022/08/16 10:40:42;;;;;;;;;;;;;;;36.58;61.12;98857.06;4499677;31;19981;-87
2022/08/16 10:43:07;;;;;;;;;;;;;;;36.55;61.13;98858.34;4499920;31;19986;-86
2022/08/16 10:45:33;;;;;;;;;;;;;;;36.51;61.12;98846.34;4499097;31;20015;-87
2022/08/16 10:47:59;;;;;;;;;;;;;;;36.69;61.12;98852.69;4499601;31;20270;-86
2022/08/16 10:50:24;;;;;;;;;;;;;;;37.11;61.14;98842.41;4499713;31;19999;-86
2022/08/16 10:52:49;;;;;;;;;;;;;;;37.23;61.15;98848.59;4500854;31;19991;-87
2022/08/16 10:55:15;;;;;;;;;;;;;;;37.25;61.15;98846.50;4501249;31;25232;-87
2022/08/16 10:57:40;;;;;;;;;;;;;;;37.33;61.15;98845.28;4503442;31;19984;-87
2022/08/16 11:00:09;;;;;;;;;;;;;;;37.34;61.16;98846.91;4501217;31;33322;-87
2022/08/16 11:02:34;;;;;;;;;;;;;;;37.54;61.17;98841.84;4503437;31;19987;-87
2022/08/16 11:04:59;;;;;;;;;;;;;;;37.54;61.17;98835.59;4501275;31;29314;-87
2022/08/16 11:07:24;;;;;;;;;;;;;;;37.55;61.17;98832.63;4503204;31;19968;-87
2022/08/16 11:09:49;;;;;;;;;;;;;;;37.55;61.17;98838.06;4501442;31;25196;-86
2022/08/16 11:12:15;;;;;;;;;;;;;;;37.54;61.17;98838.31;4503274;31;19976;-86
2022/08/16 11:14:40;;;;;;;;;;;;;;;37.82;61.18;98830.09;4503021;31;19983;-87
2022/08/16 11:17:05;;;;;;;;;;;;;;;38.20;61.20;98825.81;4502020;31;20029;-87
2022/08/16 11:19:30;;;;;;;;;;;;;;;38.52;61.22;98826.78;4501301;31;19976;-87
2022/08/16 11:21:56;;;;;;;;;;;;;;;38.58;61.22;98828.50;4501884;31;19979;-88
2022/08/16 11:24:21;;;;;;;;;;;;;;;38.17;61.21;98831.72;4500948;31;31841;-87
2022/08/16 11:26:46;;;;;;;;;;;;;;;38.06;61.19;98828.84;4503025;31;19984;-87
2022/08/16 11:29:12;;;;;;;;;;;;;;;38.30;61.20;98825.94;4503107;31;19980;-87
2022/08/16 11:31:37;;;;;;;;;;;;;;;38.32;61.20;98829.22;4501779;31;20025;-87
2022/08/16 11:34:02;;;;;;;;;;;;;;;38.62;61.22;98832.38;4503020;31;19990;-87
2022/08/16 11:36:28;;;;;;;;;;;;;;;39.00;61.24;98834.16;4502507;31;21291;-87
2022/08/16 11:38:53;;;;;;;;;;;;;;;39.03;61.24;98849.16;4501590;31;19977;-87
2022/08/16 11:41:18;;;;;;;;;;;;;;;38.79;61.23;98853.25;4501832;31;20220;-87
2022/08/16 11:43:45;;;;;;;;;;;;;;;38.35;61.21;98850.50;4502231;31;30539;-88
2022/08/16 11:46:11;;;;;;;;;;;;;;;38.37;61.21;98853.78;4502899;31;19976;-87
2022/08/16 11:48:37;;;;;;;;;;;;;;;38.28;61.21;98852.56;4501610;31;19984;-87
2022/08/16 11:51:02;;;;;;;;;;;;;;;37.86;61.19;98844.88;4501521;31;20030;-87
2022/08/16 11:53:27;;;;;;;;;;;;;;;37.09;61.14;98850.78;4501673;31;20026;-87
2022/08/16 11:55:53;;;;;;;;;;;;;;;36.86;61.15;98859.84;4502845;31;19976;-86
2022/08/16 11:58:18;;;;;;;;;;;;;;;36.95;61.15;98862.19;4501569;31;19984;-86
2022/08/16 12:00:43;;;;;;;;;;;;;;;37.23;61.16;98856.75;4501713;31;19994;-87
2022/08/16 12:03:09;;;;;;;;;;;;;;;37.64;61.18;98850.19;4501810;31;20028;-86
2022/08/16 12:05:35;;;;;;;;;;;;;;;37.52;61.18;98852.13;4501537;31;19983;-86
2022/08/16 12:08:01;;;;;;;;;;;;;;;37.62;61.18;98851.47;4501571;31;20347;-86
2022/08/16 12:10:26;;;;;;;;;;;;;;;37.82;61.18;98849.13;4501518;31;19984;-86
2022/08/16 12:12:51;;;;;;;;;;;;;;;37.86;61.19;98849.44;4501597;31;19988;-86
2022/08/16 12:15:17;;;;;;;;;;;;;;;37.97;61.19;98841.22;4501152;31;19985;-85
2022/08/16 12:17:42;;;;;;;;;;;;;;;38.14;61.20;98837.66;4501598;31;19990;-86
2022/08/16 12:20:08;;;;;;;;;;;;;;;38.36;61.22;98838.56;4501496;31;20245;-86
2022/08/16 12:22:34;;;;;;;;;;;;;;;38.56;61.22;98832.53;4501518;31;20000;-86
2022/08/16 12:24:59;;;;;;;;;;;;;;;38.69;61.23;98832.19;4501450;31;20730;-86
2022/08/16 12:27:25;;;;;;;;;;;;;;;38.83;61.23;98814.41;4501417;31;20256;-86
2022/08/16 12:29:50;;;;;;;;;;;;;;;38.95;61.23;98809.63;4501324;31;19991;-86
2022/08/16 12:32:16;;;;;;;;;;;;;;;39.18;61.25;98815.88;4501363;31;20002;-86
2022/08/16 12:34:41;;;;;;;;;;;;;;;39.01;61.25;98821.38;4501248;31;19996;-86
2022/08/16 12:37:06;;;;;;;;;;;;;;;38.47;61.21;98843.03;4500965;31;19976;-86
2022/08/16 12:39:32;;;;;;;;;;;;;;;37.88;61.19;98855.47;4500582;31;32537;-86
2022/08/16 12:41:57;;;;;;;;;;;;;;;36.94;61.16;98879.53;4501588;31;19992;-87